createdAt,value
2018-10-05T00:01:52.170Z,26.00
2018-10-05T00:04:20.303Z,20.37
2018-10-05T00:06:48.531Z,26.93
2018-10-05T00:09:16.662Z,24.13
2018-10-05T00:11:44.830Z,28.27
2018-10-05T00:14:12.834Z,27.33
2018-10-05T00:16:40.970Z,27.33
2018-10-05T00:19:09.430Z,31.60
2018-10-05T00:21:37.927Z,32.67
2018-10-05T00:24:06.173Z,24.23
2018-10-05T00:26:34.377Z,24.20
2018-10-05T00:29:02.503Z,23.83
2018-10-05T00:31:30.809Z,18.70
2018-10-05T00:33:58.877Z,19.57
2018-10-05T00:36:26.993Z,23.60
2018-10-05T00:38:56.430Z,34.67
2018-10-05T00:41:24.520Z,22.77
2018-10-05T00:43:52.657Z,29.47
2018-10-05T00:46:27.969Z,21.93
2018-10-05T00:48:56.055Z,30.40
2018-10-05T00:51:24.184Z,23.53
2018-10-05T00:53:52.180Z,27.00
2018-10-05T00:56:20.157Z,31.37
2018-10-05T00:58:48.213Z,26.13
2018-10-05T01:01:16.201Z,27.13
2018-10-05T01:03:44.223Z,39.23
2018-10-05T01:06:12.271Z,29.93
2018-10-05T01:08:40.525Z,38.30
2018-10-05T01:11:08.656Z,32.27
2018-10-05T01:13:36.709Z,28.33
2018-10-05T01:16:04.945Z,30.63
2018-10-05T01:18:33.395Z,34.10
2018-10-05T01:21:01.672Z,30.93
2018-10-05T01:23:29.867Z,31.37
2018-10-05T01:25:57.962Z,35.87
2018-10-05T01:28:26.045Z,32.63
2018-10-05T01:30:54.152Z,32.30
2018-10-05T01:33:22.762Z,36.67
2018-10-05T01:35:50.779Z,27.43
2018-10-05T01:38:18.758Z,30.77
2018-10-05T01:40:46.794Z,30.77
2018-10-05T01:43:14.781Z,31.03
2018-10-05T01:45:42.875Z,30.00
2018-10-05T01:48:10.946Z,36.63
2018-10-05T01:50:39.028Z,45.53
2018-10-05T01:53:07.057Z,32.43
2018-10-05T01:55:35.253Z,32.03
2018-10-05T01:58:03.662Z,30.60
2018-10-05T02:00:32.244Z,28.53
2018-10-05T02:03:00.381Z,25.20
2018-10-05T02:05:28.467Z,26.83
2018-10-05T02:07:56.564Z,28.17
2018-10-05T02:10:24.608Z,30.20
2018-10-05T02:12:52.621Z,41.63
2018-10-05T02:15:20.687Z,34.57
2018-10-05T02:17:48.650Z,28.07
2018-10-05T02:20:16.624Z,37.87
2018-10-05T02:22:44.770Z,37.17
2018-10-05T02:25:13.360Z,37.90
2018-10-05T02:27:41.540Z,43.57
2018-10-05T02:30:09.582Z,32.30
2018-10-05T02:32:37.693Z,40.80
2018-10-05T02:35:06.082Z,32.40
2018-10-05T02:37:34.095Z,38.60
2018-10-05T02:40:02.418Z,31.13
2018-10-05T02:42:30.721Z,38.37
2018-10-05T02:44:58.818Z,40.20
2018-10-05T02:47:26.945Z,29.43
2018-10-05T02:49:55.460Z,34.87
2018-10-05T02:52:23.457Z,38.57
2018-10-05T02:54:51.567Z,42.13
2018-10-05T02:57:19.596Z,41.33
2018-10-05T02:59:47.813Z,32.63
2018-10-05T03:02:21.188Z,36.43
2018-10-05T03:04:49.554Z,31.70
2018-10-05T03:07:17.925Z,48.57
2018-10-05T03:09:46.202Z,45.57
2018-10-05T03:12:14.545Z,32.47
2018-10-05T03:14:42.545Z,29.93
2018-10-05T03:17:10.679Z,31.60
2018-10-05T03:19:39.049Z,23.60
2018-10-05T03:22:07.405Z,29.60
2018-10-05T03:24:35.566Z,36.57
2018-10-05T03:27:03.827Z,34.63
2018-10-05T03:29:31.928Z,29.23
2018-10-05T03:32:00.111Z,24.23
2018-10-05T03:34:28.244Z,29.70
2018-10-05T03:36:56.405Z,27.93
2018-10-05T03:39:24.456Z,26.27
2018-10-05T03:41:52.997Z,41.57
2018-10-05T03:44:21.338Z,36.60
2018-10-05T03:46:49.373Z,34.93
2018-10-05T03:49:17.455Z,37.03
2018-10-05T03:51:45.431Z,29.40
2018-10-05T03:54:13.481Z,33.60
2018-10-05T03:56:41.510Z,33.37
2018-10-05T03:59:10.136Z,39.40
2018-10-05T04:01:38.330Z,42.23
2018-10-05T04:04:06.447Z,31.20
2018-10-05T04:06:34.543Z,35.23
2018-10-05T04:09:02.723Z,36.40
2018-10-05T04:11:33.290Z,35.90
2018-10-05T04:14:01.420Z,35.80
2018-10-05T04:16:29.557Z,46.10
2018-10-05T04:18:57.751Z,40.10
2018-10-05T04:21:26.277Z,48.67
2018-10-05T04:23:54.332Z,37.70
2018-10-05T04:26:22.313Z,42.53
2018-10-05T04:28:50.299Z,38.57
2018-10-05T04:31:18.716Z,37.10
2018-10-05T04:33:47.199Z,33.93
2018-10-05T04:36:16.828Z,44.10
2018-10-05T04:38:44.912Z,31.17
2018-10-05T04:41:13.772Z,38.03
2018-10-05T04:43:42.120Z,31.63
2018-10-05T04:46:10.313Z,35.03
2018-10-05T04:48:38.348Z,34.80
2018-10-05T04:51:09.399Z,31.97
2018-10-05T04:53:38.496Z,36.30
2018-10-05T04:56:07.234Z,29.17
2018-10-05T04:58:35.511Z,33.03
2018-10-05T05:01:03.980Z,25.17
2018-10-05T05:03:32.275Z,28.17
2018-10-05T05:06:00.732Z,26.97
2018-10-05T05:08:28.918Z,21.83
2018-10-05T05:10:57.075Z,20.70
2018-10-05T05:13:25.265Z,20.30
2018-10-05T05:15:53.540Z,33.70
2018-10-05T05:18:21.979Z,26.43
2018-10-05T05:20:50.289Z,25.97
2018-10-05T05:23:18.365Z,25.80
2018-10-05T05:25:47.772Z,23.13
2018-10-05T05:28:16.993Z,30.57
2018-10-05T05:33:43.464Z,18.70
2018-10-05T05:36:12.099Z,19.43
2018-10-05T05:38:41.481Z,21.83
2018-10-05T05:41:10.981Z,21.30
2018-10-05T05:43:39.480Z,22.67
2018-10-05T05:46:08.635Z,18.37
2018-10-05T05:48:37.054Z,19.57
2018-10-05T05:51:05.224Z,18.50
2018-10-05T05:53:34.197Z,19.13
2018-10-05T05:56:02.758Z,19.10
2018-10-05T05:58:35.951Z,17.33
2018-10-05T06:01:07.261Z,17.10
2018-10-05T06:03:36.284Z,18.10
2018-10-05T06:06:14.154Z,16.30
2018-10-05T06:08:42.651Z,28.30
2018-10-05T06:11:13.168Z,16.97
2018-10-05T06:13:41.248Z,19.50
2018-10-05T06:16:09.575Z,14.70
2018-10-05T06:18:37.921Z,10.77
2018-10-05T06:21:06.247Z,13.83
2018-10-05T06:23:35.226Z,10.97
2018-10-05T06:26:04.040Z,22.73
2018-10-05T06:28:32.889Z,12.63
2018-10-05T06:31:01.323Z,12.37
2018-10-05T06:33:34.176Z,12.70
2018-10-05T06:36:02.702Z,15.13
2018-10-05T06:38:31.380Z,12.07
2018-10-05T06:40:59.831Z,20.43
2018-10-05T06:46:09.971Z,17.33
2018-10-05T06:48:38.188Z,21.23
2018-10-05T06:51:08.693Z,40.83
2018-10-05T06:53:37.124Z,34.90
2018-10-05T07:09:38.145Z,39.10
2018-10-05T07:12:11.919Z,26.70
2018-10-05T07:14:40.174Z,25.50
2018-10-05T07:17:09.653Z,26.03
2018-10-05T07:19:38.794Z,40.53
2018-10-05T07:22:07.310Z,34.13
2018-10-05T07:24:35.987Z,31.00
2018-10-05T07:27:18.040Z,62.07
2018-10-05T07:29:46.624Z,42.57
2018-10-05T07:32:15.044Z,24.60
2018-10-05T07:37:25.906Z,28.33
2018-10-05T07:39:55.179Z,35.47
2018-10-05T07:42:23.731Z,30.70
2018-10-05T07:44:52.129Z,23.90
2018-10-05T07:47:20.789Z,17.70
2018-10-05T07:49:49.235Z,15.70
2018-10-05T07:52:17.842Z,17.03
2018-10-05T07:55:00.511Z,17.87
2018-10-05T08:00:20.878Z,24.70
2018-10-05T08:02:49.083Z,19.17
2018-10-05T08:05:17.294Z,15.47
2018-10-05T08:07:45.486Z,20.17
2018-10-05T08:10:13.706Z,19.07
2018-10-05T08:15:23.421Z,46.40
2018-10-05T08:17:52.273Z,12.97
2018-10-05T08:20:20.542Z,14.50
2018-10-05T08:22:49.492Z,10.77
2018-10-05T08:25:17.660Z,13.60
2018-10-05T08:27:46.309Z,11.53
2018-10-05T08:30:14.820Z,12.77
2018-10-05T08:32:43.327Z,17.33
2018-10-05T08:35:11.507Z,17.13
2018-10-05T08:37:41.428Z,11.03
2018-10-05T08:40:14.352Z,12.43
2018-10-05T08:42:42.684Z,7.77
2018-10-05T08:47:58.433Z,10.93
2018-10-05T08:50:31.729Z,15.43
2018-10-05T08:53:03.933Z,9.93
2018-10-05T08:55:32.382Z,13.30
2018-10-05T08:58:06.851Z,11.30
2018-10-05T09:03:27.943Z,8.87
2018-10-05T09:05:56.636Z,8.77
2018-10-05T09:08:25.135Z,9.50
2018-10-05T09:13:32.833Z,8.70
2018-10-05T09:16:03.538Z,9.63
2018-10-05T09:18:44.359Z,10.07
2018-10-05T09:21:12.784Z,9.33
2018-10-05T09:23:41.219Z,11.10
2018-10-05T09:26:10.044Z,11.63
2018-10-05T09:31:24.219Z,10.53
2018-10-05T09:33:54.115Z,10.47
2018-10-05T09:39:22.934Z,11.33
2018-10-05T09:45:09.597Z,10.37
2018-10-05T09:47:38.043Z,7.93
2018-10-05T09:53:01.757Z,7.60
2018-10-05T09:55:32.245Z,9.37
2018-10-05T09:58:01.314Z,6.40
2018-10-05T10:00:35.690Z,8.83
2018-10-05T10:03:11.657Z,7.90
2018-10-05T10:05:40.694Z,23.13
2018-10-05T10:08:09.877Z,10.17
2018-10-05T10:10:38.818Z,11.40
2018-10-05T10:13:11.953Z,12.27
2018-10-05T10:15:40.512Z,13.40
2018-10-05T10:18:09.641Z,13.30
2018-10-05T10:20:38.318Z,10.77
2018-10-05T10:23:07.565Z,13.17
2018-10-05T10:25:36.397Z,14.60
2018-10-05T10:28:05.015Z,11.80
2018-10-05T10:30:34.054Z,10.40
2018-10-05T10:33:04.140Z,11.83
2018-10-05T10:35:32.662Z,13.80
2018-10-05T10:38:01.181Z,12.17
2018-10-05T10:40:30.308Z,16.23
2018-10-05T10:42:58.599Z,11.13
2018-10-05T10:45:29.235Z,14.57
2018-10-05T10:50:31.283Z,11.60
2018-10-05T10:53:00.787Z,8.80
2018-10-05T10:55:33.999Z,14.43
2018-10-05T11:03:32.516Z,10.10
2018-10-05T11:08:35.140Z,12.23
2018-10-05T11:11:07.071Z,9.20
2018-10-05T11:13:35.357Z,10.63
2018-10-05T11:16:03.743Z,17.33
2018-10-05T11:18:33.105Z,14.50
2018-10-05T11:23:40.883Z,7.23
2018-10-05T11:28:55.221Z,10.80
2018-10-05T11:31:31.629Z,12.93
2018-10-05T11:36:48.919Z,8.30
2018-10-05T11:41:55.577Z,8.97
2018-10-05T11:44:24.377Z,6.50
2018-10-05T11:49:41.115Z,14.20
2018-10-05T11:52:09.657Z,12.43
2018-10-05T12:02:56.244Z,8.93
2018-10-05T12:05:24.568Z,8.33
2018-10-05T12:07:53.065Z,7.80
2018-10-05T12:10:21.397Z,9.47
2018-10-05T12:12:58.372Z,8.73
2018-10-05T12:18:11.958Z,13.37
2018-10-05T12:20:44.376Z,7.83
2018-10-05T12:28:58.574Z,10.90
2018-10-05T12:34:35.801Z,6.73
2018-10-05T12:39:42.720Z,9.00
2018-10-05T12:42:13.007Z,8.47
2018-10-05T12:44:41.534Z,18.10
2018-10-05T12:49:58.005Z,9.23
2018-10-05T12:52:26.354Z,10.30
2018-10-05T12:57:42.995Z,10.40
2018-10-05T13:00:11.202Z,9.03
2018-10-05T13:02:39.716Z,6.90
2018-10-05T13:05:09.136Z,8.23
2018-10-05T13:07:38.757Z,13.30
2018-10-05T13:10:08.315Z,11.80
2018-10-05T13:12:37.270Z,7.23
2018-10-05T13:18:02.168Z,8.13
2018-10-05T13:20:34.936Z,8.60
2018-10-05T13:25:45.622Z,7.70
2018-10-05T13:28:14.215Z,7.30
2018-10-05T13:33:26.997Z,8.23
2018-10-05T13:35:55.301Z,7.57
2018-10-05T13:38:24.675Z,5.63
2018-10-05T13:43:28.101Z,4.60
2018-10-05T13:45:57.979Z,5.30
2018-10-05T13:48:26.889Z,19.17
2018-10-05T13:54:10.603Z,9.67
2018-10-05T13:56:39.524Z,4.13
2018-10-05T13:59:07.828Z,6.17
2018-10-05T14:01:37.635Z,6.27
2018-10-05T14:06:48.986Z,6.43
2018-10-05T14:09:17.726Z,5.80
2018-10-05T14:14:49.944Z,7.70
2018-10-05T14:17:19.525Z,5.47
2018-10-05T14:22:32.950Z,7.70
2018-10-05T14:27:41.556Z,7.73
2018-10-05T14:30:16.083Z,5.67
2018-10-05T14:32:45.596Z,9.60
2018-10-05T14:35:17.579Z,11.50
2018-10-05T14:37:45.986Z,9.33
2018-10-05T14:40:14.791Z,5.80
2018-10-05T14:42:42.926Z,13.67
2018-10-05T14:48:02.851Z,5.23
2018-10-05T14:50:32.711Z,5.47
2018-10-05T14:53:02.525Z,24.13
2018-10-05T14:55:35.661Z,7.03
2018-10-05T14:58:04.292Z,5.47
2018-10-05T15:00:33.336Z,9.77
2018-10-05T15:03:07.116Z,8.00
2018-10-05T15:05:35.811Z,6.87
2018-10-05T15:08:04.638Z,7.10
2018-10-05T15:13:31.061Z,8.53
2018-10-05T15:15:59.701Z,6.33
2018-10-05T15:18:28.131Z,7.60
2018-10-05T15:21:03.277Z,8.07
2018-10-05T15:23:31.683Z,7.53
2018-10-05T15:26:00.558Z,7.00
2018-10-05T15:28:29.717Z,8.40
2018-10-05T15:30:59.232Z,4.20
2018-10-05T15:33:33.561Z,5.80
2018-10-05T15:36:06.035Z,8.80
2018-10-05T15:38:34.673Z,20.80
2018-10-05T15:43:55.872Z,13.27
2018-10-05T15:46:33.796Z,11.70
2018-10-05T15:49:06.210Z,5.90
2018-10-05T15:51:36.927Z,8.47
2018-10-05T15:54:05.884Z,7.57
2018-10-05T15:56:43.902Z,7.47
2018-10-05T16:02:06.329Z,12.50
2018-10-05T16:07:32.617Z,9.97
2018-10-05T16:10:05.154Z,8.77
2018-10-05T16:15:23.046Z,12.00
2018-10-05T16:17:51.262Z,17.60
2018-10-05T16:20:32.322Z,14.03
2018-10-05T16:23:02.794Z,15.47
2018-10-05T16:25:31.994Z,9.13
2018-10-05T16:30:58.359Z,5.63
2018-10-05T16:33:27.797Z,8.23
2018-10-05T16:35:56.292Z,8.77
2018-10-05T16:38:25.259Z,17.90
2018-10-05T16:40:53.573Z,7.73
2018-10-05T16:43:31.691Z,9.33
2018-10-05T16:46:00.710Z,10.07
2018-10-05T16:48:29.517Z,8.17
2018-10-05T16:50:59.774Z,10.90
2018-10-05T16:53:32.769Z,11.23
2018-10-05T16:56:10.143Z,14.40
2018-10-05T16:58:38.886Z,8.07
2018-10-05T17:01:07.637Z,11.13
2018-10-05T17:03:37.134Z,9.73
2018-10-05T17:06:06.627Z,10.50
2018-10-05T17:08:38.878Z,8.00
2018-10-05T17:11:07.110Z,5.80
2018-10-05T17:13:36.265Z,15.43
2018-10-05T17:16:05.235Z,15.20
2018-10-05T17:21:15.028Z,15.70
2018-10-05T17:23:43.415Z,14.67
2018-10-05T17:26:12.301Z,10.97
2018-10-05T17:28:40.732Z,12.57
2018-10-05T17:31:15.084Z,12.63
2018-10-05T17:36:28.474Z,14.47
2018-10-05T17:38:57.057Z,20.37
2018-10-05T17:41:31.803Z,23.53
2018-10-05T17:44:02.559Z,15.93
2018-10-05T17:46:33.933Z,15.93
2018-10-05T17:49:03.125Z,19.10
2018-10-05T17:57:21.603Z,13.57
2018-10-05T17:59:50.448Z,12.33
2018-10-05T18:05:01.433Z,30.20
2018-10-05T18:07:29.879Z,14.33
2018-10-05T18:10:01.011Z,9.73
2018-10-05T18:12:29.211Z,10.43
2018-10-05T18:14:58.411Z,20.53
2018-10-05T18:20:29.031Z,15.47
2018-10-05T18:23:03.689Z,12.70
2018-10-05T18:25:33.230Z,11.00
2018-10-05T18:28:02.813Z,12.40
2018-10-05T18:30:31.357Z,13.93
2018-10-05T18:33:00.027Z,16.20
2018-10-05T18:40:58.831Z,20.30
2018-10-05T18:43:27.242Z,22.07
2018-10-05T18:45:55.717Z,17.43
2018-10-05T18:48:24.286Z,14.50
2018-10-05T18:51:02.036Z,18.33
2018-10-05T18:53:35.331Z,22.33
2018-10-05T18:58:10.492Z,21.90
2018-10-05T19:00:39.001Z,19.00
2018-10-05T19:03:07.613Z,15.03
2018-10-05T19:05:39.393Z,16.83
2018-10-05T19:10:41.240Z,35.13
2018-10-05T19:13:21.748Z,24.13
2018-10-05T19:15:49.939Z,21.27
2018-10-05T19:18:18.186Z,19.37
2018-10-05T19:20:46.672Z,19.10
2018-10-05T19:23:15.829Z,18.90
2018-10-05T19:25:45.748Z,16.67
2018-10-05T19:28:14.104Z,21.97
2018-10-05T19:30:42.921Z,22.57
2018-10-05T19:33:16.322Z,12.20
2018-10-05T19:35:44.510Z,20.43
2018-10-05T19:38:12.878Z,15.00
2018-10-05T19:40:47.000Z,19.67
2018-10-05T19:43:15.388Z,21.70
2018-10-05T19:45:44.328Z,15.63
2018-10-05T19:48:12.526Z,14.20
2018-10-05T19:50:42.552Z,16.73
2018-10-05T19:53:11.716Z,16.63
2018-10-05T19:55:41.299Z,24.57
2018-10-05T19:58:10.098Z,16.03
2018-10-05T20:00:39.110Z,23.07
2018-10-05T20:05:49.989Z,23.60
2018-10-05T20:11:03.688Z,17.60
2018-10-05T20:13:34.295Z,14.10
2018-10-05T20:16:03.435Z,13.87
2018-10-05T20:18:36.337Z,20.27
2018-10-05T20:23:41.989Z,24.47
2018-10-05T20:28:44.473Z,21.17
2018-10-05T20:31:12.922Z,17.40
2018-10-05T20:33:42.166Z,21.23
2018-10-05T20:36:11.547Z,18.70
2018-10-05T20:38:42.022Z,24.30
2018-10-05T20:41:11.989Z,25.10
2018-10-05T20:43:40.976Z,32.67
2018-10-05T20:46:09.674Z,31.40
2018-10-05T20:48:38.814Z,34.00
2018-10-05T20:53:48.292Z,28.23
2018-10-05T20:56:16.631Z,25.60
2018-10-05T20:58:45.177Z,22.03
2018-10-05T21:01:13.326Z,27.63
2018-10-05T21:03:41.728Z,28.17
2018-10-05T21:06:10.090Z,25.37
2018-10-05T21:08:38.295Z,25.20
2018-10-05T21:11:06.641Z,28.67
2018-10-05T21:13:35.135Z,31.00
2018-10-05T21:16:03.846Z,24.13
2018-10-05T21:18:38.919Z,25.50
2018-10-05T21:21:07.165Z,36.20
2018-10-05T21:23:37.182Z,41.33
2018-10-05T21:26:05.788Z,28.90
2018-10-05T21:28:34.941Z,29.80
2018-10-05T21:31:03.564Z,27.50
2018-10-05T21:33:34.812Z,27.60
2018-10-05T21:36:04.205Z,26.20
2018-10-05T21:38:32.965Z,20.90
2018-10-05T21:41:01.249Z,21.00
2018-10-05T21:43:29.626Z,20.20
2018-10-05T21:45:58.699Z,21.47
2018-10-05T21:48:27.294Z,20.43
2018-10-05T21:53:30.956Z,18.87
2018-10-05T21:55:59.243Z,20.00
2018-10-05T21:58:27.562Z,17.60
2018-10-05T22:00:56.093Z,18.63
2018-10-05T22:03:24.248Z,22.60
2018-10-05T22:05:52.603Z,14.70
2018-10-05T22:08:20.599Z,18.43
2018-10-05T22:10:53.315Z,17.00
2018-10-05T22:13:21.557Z,18.33
2018-10-05T22:15:49.632Z,16.70
2018-10-05T22:18:23.826Z,20.80
2018-10-05T22:20:52.323Z,26.20
2018-10-05T22:23:20.515Z,15.10
2018-10-05T22:25:48.969Z,17.20
2018-10-05T22:28:17.227Z,13.83
2018-10-05T22:30:45.478Z,16.93
2018-10-05T22:33:13.724Z,21.60
2018-10-05T22:35:41.979Z,12.67
2018-10-05T22:38:10.176Z,14.07
2018-10-05T22:40:38.558Z,15.17
2018-10-05T22:43:06.695Z,21.93
2018-10-05T22:45:34.941Z,14.87
2018-10-05T22:48:03.841Z,14.97
2018-10-05T22:50:33.182Z,20.60
2018-10-05T22:53:02.150Z,15.70
2018-10-05T22:55:30.878Z,16.93
2018-10-05T22:57:59.056Z,27.00
2018-10-05T23:00:27.312Z,18.77
2018-10-05T23:02:55.877Z,20.10
2018-10-05T23:05:23.976Z,22.47
2018-10-05T23:07:52.126Z,14.93
2018-10-05T23:10:20.081Z,15.60
2018-10-05T23:12:58.304Z,15.13
2018-10-05T23:15:27.120Z,12.10
2018-10-05T23:17:55.121Z,14.33
2018-10-05T23:20:23.582Z,13.13
2018-10-05T23:22:51.684Z,16.90
2018-10-05T23:25:19.785Z,9.60
2018-10-05T23:27:47.987Z,11.77
2018-10-05T23:30:15.978Z,10.90
2018-10-05T23:32:45.219Z,11.70
2018-10-05T23:35:13.298Z,13.57
2018-10-05T23:37:41.550Z,13.77
2018-10-05T23:40:09.803Z,12.40
2018-10-05T23:42:38.229Z,12.20
2018-10-05T23:45:06.488Z,10.87
2018-10-05T23:47:34.930Z,14.03
2018-10-05T23:50:03.808Z,11.50
2018-10-05T23:52:35.062Z,9.73
2018-10-05T23:55:04.484Z,11.80
2018-10-05T23:57:33.520Z,10.90
